Time;durP1;ratioP1;P1;durP2;ratioP2;P2;SDS_P1;SDS_P2;PMS_P1;PMS_P2;Temp;Humidity;BMP_temperature;BMP_pressure;BME280_temperature;BME280_humidity;BME280_pressure;Samples;Min_cycle;Max_cycle;Signal;HPM_P1;HPM_P2
2022/03/07 00:01:37;;;;;;;;;;;-1.20;99.90;;;;;;4990773;28;19933;-77
2022/03/07 00:04:03;;;;;;;;;;;-1.10;99.90;;;;;;4991195;28;19918;-77
2022/03/07 00:06:29;;;;;;;;;;;-1.20;99.90;;;;;;5008739;28;20382;-77
2022/03/07 00:08:55;;;;;;;;;;;-1.20;99.90;;;;;;4994877;28;19924;-77
2022/03/07 00:11:21;;;;;;;;;;;-1.20;99.90;;;;;;4994897;28;20008;-76
2022/03/07 00:13:47;;;;;;;;;;;-1.20;99.90;;;;;;4995948;28;19972;-76
2022/03/07 00:16:13;;;;;;;;;;;-1.20;99.90;;;;;;4995044;28;19920;-77
2022/03/07 00:18:39;;;;;;;;;;;-1.20;99.90;;;;;;5010102;28;19957;-76
2022/03/07 00:21:05;;;;;;;;;;;-1.20;99.90;;;;;;4994645;28;19922;-77
2022/03/07 00:23:31;;;;;;;;;;;-1.30;99.90;;;;;;4994624;28;19945;-76
2022/03/07 00:25:56;;;;;;;;;;;-1.30;99.90;;;;;;4980999;28;20004;-77
2022/03/07 00:28:22;;;;;;;;;;;-1.30;99.90;;;;;;4993287;28;19953;-77
2022/03/07 00:30:48;;;;;;;;;;;-1.30;99.90;;;;;;4994477;28;19925;-77
2022/03/07 00:33:16;;;;;;;;;;;-1.40;99.90;;;;;;5001836;28;19929;-76
2022/03/07 00:35:41;;;;;;;;;;;-1.40;99.90;;;;;;4982211;28;20287;-76
2022/03/07 00:38:07;;;;;;;;;;;-1.30;99.90;;;;;;5009553;28;19910;-77
2022/03/07 00:40:33;;;;;;;;;;;-1.30;99.90;;;;;;4977739;28;19925;-76
2022/03/07 00:42:59;;;;;;;;;;;-1.40;99.90;;;;;;4993934;28;19924;-77
2022/03/07 00:45:25;;;;;;;;;;;-1.40;99.90;;;;;;5001156;28;19918;-77
2022/03/07 00:47:50;;;;;;;;;;;-1.40;99.90;;;;;;5009095;28;19918;-76
2022/03/07 00:50:17;;;;;;;;;;;-1.40;99.90;;;;;;4991131;28;19918;-77
2022/03/07 00:52:43;;;;;;;;;;;-1.40;99.90;;;;;;5007893;28;20616;-77
2022/03/07 00:55:08;;;;;;;;;;;-1.40;99.90;;;;;;4994971;28;19960;-77
2022/03/07 00:57:34;;;;;;;;;;;-1.40;99.90;;;;;;4993708;28;19948;-76
2022/03/07 01:00:00;;;;;;;;;;;-1.40;99.90;;;;;;4993017;28;19917;-77
2022/03/07 01:02:26;;;;;;;;;;;-1.40;99.90;;;;;;4997927;28;20009;-76
2022/03/07 01:04:55;;;;;;;;;;;-1.40;99.90;;;;;;5010265;28;19957;-76
2022/03/07 01:07:20;;;;;;;;;;;-1.40;99.90;;;;;;4991271;28;19929;-76
2022/03/07 01:09:46;;;;;;;;;;;-1.40;99.90;;;;;;4993570;28;19918;-76
2022/03/07 01:12:11;;;;;;;;;;;-1.40;99.90;;;;;;4985731;28;19945;-77
2022/03/07 01:14:37;;;;;;;;;;;-1.50;99.90;;;;;;4977661;28;19922;-77
2022/03/07 01:17:03;;;;;;;;;;;-1.60;99.90;;;;;;4993912;28;20000;-78
2022/03/07 01:19:29;;;;;;;;;;;-1.60;99.90;;;;;;4994362;28;19957;-77
2022/03/07 01:21:55;;;;;;;;;;;-1.70;99.90;;;;;;5002525;28;19918;-78
2022/03/07 01:24:20;;;;;;;;;;;-1.80;99.90;;;;;;5003856;28;19925;-77
2022/03/07 01:26:46;;;;;;;;;;;-1.80;99.90;;;;;;4992956;28;19917;-76
2022/03/07 01:29:12;;;;;;;;;;;-1.90;99.90;;;;;;4990070;28;20029;-76
2022/03/07 01:31:38;;;;;;;;;;;-1.90;99.90;;;;;;4982447;28;20001;-76
2022/03/07 01:34:03;;;;;;;;;;;-1.90;99.90;;;;;;4993544;28;19924;-77
2022/03/07 01:36:29;;;;;;;;;;;-2.00;99.90;;;;;;4970504;28;19925;-77
2022/03/07 01:38:55;;;;;;;;;;;-2.00;99.90;;;;;;4992620;28;19913;-77
2022/03/07 01:41:20;;;;;;;;;;;-2.00;99.90;;;;;;4969464;28;19918;-76
2022/03/07 01:43:46;;;;;;;;;;;-2.00;99.90;;;;;;4989961;28;20005;-77
2022/03/07 01:46:12;;;;;;;;;;;-2.00;99.90;;;;;;4961291;28;19921;-76
2022/03/07 01:48:38;;;;;;;;;;;-2.10;99.90;;;;;;4993414;28;19925;-79
2022/03/07 01:51:04;;;;;;;;;;;-2.10;99.90;;;;;;4976654;28;20339;-79
2022/03/07 01:53:31;;;;;;;;;;;-2.20;99.90;;;;;;4977030;28;19914;-78
2022/03/07 01:55:59;;;;;;;;;;;-2.20;99.90;;;;;;4976291;28;19945;-79
2022/03/07 01:58:26;;;;;;;;;;;-2.20;99.90;;;;;;4990650;28;19922;-76
2022/03/07 02:00:52;;;;;;;;;;;-2.20;99.90;;;;;;4989974;28;20013;-77
2022/03/07 02:03:17;;;;;;;;;;;-2.30;99.90;;;;;;4986550;28;19914;-77
2022/03/07 02:05:47;;;;;;;;;;;-2.30;99.90;;;;;;5003878;28;19964;-76
2022/03/07 02:08:19;;;;;;;;;;;-2.30;99.90;;;;;;4972861;28;19918;-77
2022/03/07 02:10:53;;;;;;;;;;;-2.30;99.90;;;;;;4981253;28;19941;-78
2022/03/07 02:13:20;;;;;;;;;;;-2.40;99.90;;;;;;4992691;28;19961;-76
2022/03/07 02:15:54;;;;;;;;;;;-2.40;99.90;;;;;;5008654;28;20354;-78
2022/03/07 02:18:23;;;;;;;;;;;-2.40;99.90;;;;;;5009177;28;19924;-78
2022/03/07 02:20:55;;;;;;;;;;;-2.30;99.90;;;;;;4979859;28;20008;-78
2022/03/07 02:23:20;;;;;;;;;;;-2.40;99.90;;;;;;4993964;28;20391;-78
2022/03/07 02:25:47;;;;;;;;;;;-2.40;99.90;;;;;;5008975;28;19914;-78
2022/03/07 02:28:15;;;;;;;;;;;-2.40;99.90;;;;;;4992413;28;19918;-79
2022/03/07 02:30:41;;;;;;;;;;;-2.50;99.90;;;;;;4974455;28;19913;-78
2022/03/07 02:33:12;;;;;;;;;;;-2.50;99.90;;;;;;4999044;28;19953;-79
2022/03/07 02:35:38;;;;;;;;;;;-2.50;99.90;;;;;;4992321;28;20177;-76
2022/03/07 02:38:10;;;;;;;;;;;-2.60;99.90;;;;;;4975685;28;19917;-76
2022/03/07 02:40:36;;;;;;;;;;;-2.60;99.90;;;;;;4992647;28;19914;-78
2022/03/07 02:43:02;;;;;;;;;;;-2.60;99.90;;;;;;4990705;28;20391;-78
2022/03/07 02:45:28;;;;;;;;;;;-2.50;99.90;;;;;;5008314;28;19918;-78
2022/03/07 02:47:54;;;;;;;;;;;-2.60;99.90;;;;;;4976732;28;19926;-78
2022/03/07 02:50:19;;;;;;;;;;;-2.60;99.90;;;;;;4986910;28;20132;-78
2022/03/07 02:52:45;;;;;;;;;;;-2.50;99.90;;;;;;4983889;28;20013;-77
2022/03/07 02:55:10;;;;;;;;;;;-2.50;99.90;;;;;;4991533;28;20268;-78
2022/03/07 02:57:36;;;;;;;;;;;-2.50;99.90;;;;;;4992418;28;19918;-78
2022/03/07 03:00:02;;;;;;;;;;;-2.60;99.90;;;;;;4982894;28;19940;-78
2022/03/07 03:02:28;;;;;;;;;;;-2.60;99.90;;;;;;4992633;28;19910;-78
2022/03/07 03:04:54;;;;;;;;;;;-2.60;99.90;;;;;;5042876;23;19963;-78
2022/03/07 03:07:19;;;;;;;;;;;-2.60;99.90;;;;;;5015238;28;19917;-78
2022/03/07 03:09:45;;;;;;;;;;;-2.60;99.90;;;;;;5030846;28;19935;-78
2022/03/07 03:12:11;;;;;;;;;;;-2.60;99.90;;;;;;5013431;28;19925;-78
2022/03/07 03:14:37;;;;;;;;;;;-2.60;99.90;;;;;;5014911;28;19968;-77
2022/03/07 03:17:03;;;;;;;;;;;-2.60;99.90;;;;;;5024874;28;19920;-78
2022/03/07 03:19:29;;;;;;;;;;;-2.50;99.90;;;;;;5030175;28;19913;-78
2022/03/07 03:21:54;;;;;;;;;;;-2.40;99.90;;;;;;5025340;28;20367;-77
2022/03/07 03:24:20;;;;;;;;;;;-2.40;99.90;;;;;;5029692;28;19957;-77
2022/03/07 03:26:45;;;;;;;;;;;-2.40;99.90;;;;;;5028138;28;20482;-78
2022/03/07 03:29:11;;;;;;;;;;;-2.40;99.90;;;;;;5030745;28;19936;-77
2022/03/07 03:31:36;;;;;;;;;;;-2.30;99.90;;;;;;5031001;28;19921;-77
2022/03/07 03:34:02;;;;;;;;;;;-2.30;99.90;;;;;;5023285;28;19924;-78
2022/03/07 03:36:28;;;;;;;;;;;-2.30;99.90;;;;;;5029226;28;19917;-78
2022/03/07 03:38:53;;;;;;;;;;;-2.20;99.90;;;;;;5027544;28;19971;-77
2022/03/07 03:41:19;;;;;;;;;;;-2.20;99.90;;;;;;5034162;28;19913;-77
2022/03/07 03:43:44;;;;;;;;;;;-2.10;99.90;;;;;;5032662;28;19941;-78
2022/03/07 03:46:10;;;;;;;;;;;-2.10;99.90;;;;;;5033474;28;19918;-78
2022/03/07 03:48:35;;;;;;;;;;;-2.10;99.90;;;;;;5035318;28;19999;-77
2022/03/07 03:51:01;;;;;;;;;;;-2.10;99.90;;;;;;5037281;28;19924;-77
2022/03/07 03:53:27;;;;;;;;;;;-2.00;99.90;;;;;;5035846;28;19917;-77
2022/03/07 03:55:52;;;;;;;;;;;-2.00;99.90;;;;;;5044147;28;20368;-77
2022/03/07 03:58:18;;;;;;;;;;;-2.00;99.90;;;;;;5022326;28;19987;-76
2022/03/07 04:00:43;;;;;;;;;;;-2.00;99.90;;;;;;5036915;28;19917;-77
2022/03/07 04:03:09;;;;;;;;;;;-2.00;99.90;;;;;;5037002;28;19917;-78
2022/03/07 04:05:35;;;;;;;;;;;-2.00;99.90;;;;;;5036842;28;20330;-77
2022/03/07 04:08:00;;;;;;;;;;;-2.00;99.90;;;;;;5034397;28;19923;-77
2022/03/07 04:10:26;;;;;;;;;;;-2.00;99.90;;;;;;5036919;28;20415;-77
2022/03/07 04:12:51;;;;;;;;;;;-2.00;99.90;;;;;;5037232;28;19921;-78
2022/03/07 04:15:17;;;;;;;;;;;-2.00;99.90;;;;;;5036006;28;20359;-78
2022/03/07 04:17:44;;;;;;;;;;;-2.00;99.90;;;;;;5025605;28;20011;-79
2022/03/07 04:20:09;;;;;;;;;;;-1.90;99.90;;;;;;5035765;28;20011;-78
2022/03/07 04:22:36;;;;;;;;;;;-1.90;99.90;;;;;;5035772;28;19960;-78
2022/03/07 04:25:02;;;;;;;;;;;-1.90;99.90;;;;;;5036459;28;20058;-78
2022/03/07 04:27:28;;;;;;;;;;;-1.90;99.90;;;;;;5035127;28;20363;-76
2022/03/07 04:29:55;;;;;;;;;;;-2.00;99.90;;;;;;5036765;28;19920;-78
2022/03/07 04:32:21;;;;;;;;;;;-2.00;99.90;;;;;;5035780;28;19913;-78
2022/03/07 04:34:47;;;;;;;;;;;-1.90;99.90;;;;;;5035635;28;20371;-77
2022/03/07 04:37:12;;;;;;;;;;;-1.80;99.90;;;;;;5036599;28;19917;-77
2022/03/07 04:39:38;;;;;;;;;;;-1.80;99.90;;;;;;5032547;28;19959;-77
2022/03/07 04:42:04;;;;;;;;;;;-1.90;99.90;;;;;;5017213;28;19963;-78
2022/03/07 04:44:30;;;;;;;;;;;-1.90;99.90;;;;;;5031381;28;19920;-79
2022/03/07 04:46:55;;;;;;;;;;;-1.90;99.90;;;;;;5034755;28;19917;-78
2022/03/07 04:49:21;;;;;;;;;;;-1.90;99.90;;;;;;5036473;28;19928;-77
2022/03/07 04:51:47;;;;;;;;;;;-1.80;99.90;;;;;;5015157;28;19914;-77
2022/03/07 04:54:13;;;;;;;;;;;-1.80;99.90;;;;;;5031802;28;19973;-78
2022/03/07 04:56:40;;;;;;;;;;;-1.80;99.90;;;;;;5033809;28;20432;-78
2022/03/07 04:59:06;;;;;;;;;;;-1.80;99.90;;;;;;5032019;28;19917;-77
2022/03/07 05:01:31;;;;;;;;;;;-1.80;99.90;;;;;;5032252;28;19986;-77
2022/03/07 05:03:57;;;;;;;;;;;-1.80;99.90;;;;;;5031806;28;19943;-78
2022/03/07 05:06:22;;;;;;;;;;;-1.80;99.90;;;;;;5031109;28;19937;-78
2022/03/07 05:08:48;;;;;;;;;;;-1.80;99.90;;;;;;5032624;28;19940;-76
2022/03/07 05:11:13;;;;;;;;;;;-1.80;99.90;;;;;;5032798;28;19949;-77
2022/03/07 05:13:39;;;;;;;;;;;-1.80;99.90;;;;;;5033273;28;20449;-78
2022/03/07 05:16:05;;;;;;;;;;;-1.80;99.90;;;;;;5015243;28;19941;-77
2022/03/07 05:18:31;;;;;;;;;;;-1.80;99.90;;;;;;5032917;28;19917;-77
2022/03/07 05:20:56;;;;;;;;;;;-1.80;99.90;;;;;;5033387;28;19924;-76
2022/03/07 05:23:22;;;;;;;;;;;-1.70;99.90;;;;;;5030832;28;19917;-76
2022/03/07 05:25:48;;;;;;;;;;;-1.70;99.90;;;;;;5032435;28;20387;-77
2022/03/07 05:28:13;;;;;;;;;;;-1.70;99.90;;;;;;5029526;28;19918;-78
2022/03/07 05:30:39;;;;;;;;;;;-1.70;99.90;;;;;;5029883;28;19923;-76
2022/03/07 05:33:05;;;;;;;;;;;-1.70;99.90;;;;;;5012018;28;19948;-76
2022/03/07 05:35:30;;;;;;;;;;;-1.70;99.90;;;;;;5019733;28;20390;-77
2022/03/07 05:37:56;;;;;;;;;;;-1.70;99.90;;;;;;5029634;28;19920;-78
2022/03/07 05:40:22;;;;;;;;;;;-1.80;99.90;;;;;;5030468;28;20248;-78
2022/03/07 05:42:47;;;;;;;;;;;-1.70;99.90;;;;;;5015463;28;19914;-78
2022/03/07 05:45:13;;;;;;;;;;;-1.70;99.90;;;;;;5016227;28;19937;-75
2022/03/07 05:47:39;;;;;;;;;;;-1.70;99.90;;;;;;5030145;28;19983;-77
2022/03/07 05:50:05;;;;;;;;;;;-1.70;99.90;;;;;;5031757;28;19913;-77
2022/03/07 05:52:31;;;;;;;;;;;-1.70;99.90;;;;;;5031533;28;20417;-77
2022/03/07 05:54:57;;;;;;;;;;;-1.80;99.90;;;;;;5031044;28;19924;-77
2022/03/07 05:57:22;;;;;;;;;;;-1.80;99.90;;;;;;5032184;28;19947;-79
2022/03/07 05:59:48;;;;;;;;;;;-1.70;99.90;;;;;;5028904;28;19983;-78
2022/03/07 06:02:14;;;;;;;;;;;-1.70;99.90;;;;;;5028276;28;19913;-77
2022/03/07 06:04:39;;;;;;;;;;;-1.70;99.90;;;;;;5019538;28;20380;-77
2022/03/07 06:07:05;;;;;;;;;;;-1.70;99.90;;;;;;5017077;28;19928;-77
2022/03/07 06:09:30;;;;;;;;;;;-1.70;99.90;;;;;;5031757;28;19987;-78
2022/03/07 06:11:56;;;;;;;;;;;-1.70;99.90;;;;;;5030316;28;19996;-78
2022/03/07 06:14:22;;;;;;;;;;;-1.70;99.90;;;;;;5032040;28;19920;-77
2022/03/07 06:16:47;;;;;;;;;;;-1.70;99.90;;;;;;5030568;28;19913;-78
2022/03/07 06:19:13;;;;;;;;;;;-1.70;99.90;;;;;;5031826;28;20015;-78
2022/03/07 06:21:38;;;;;;;;;;;-1.60;99.90;;;;;;5025421;28;19917;-79
2022/03/07 06:24:04;;;;;;;;;;;-1.60;99.90;;;;;;5043614;28;19921;-76
2022/03/07 06:26:30;;;;;;;;;;;-1.60;99.90;;;;;;5030555;28;19913;-77
2022/03/07 06:28:55;;;;;;;;;;;-1.60;99.90;;;;;;5031229;28;19924;-77
2022/03/07 06:31:21;;;;;;;;;;;-1.60;99.90;;;;;;5031732;28;19917;-78
2022/03/07 06:33:46;;;;;;;;;;;-1.60;99.90;;;;;;5025526;28;19914;-77
2022/03/07 06:36:12;;;;;;;;;;;-1.60;99.90;;;;;;5028910;28;19921;-78
2022/03/07 06:38:39;;;;;;;;;;;-1.60;99.90;;;;;;5021180;28;19940;-78
2022/03/07 06:41:05;;;;;;;;;;;-1.50;99.90;;;;;;5024879;28;19948;-77
2022/03/07 06:43:31;;;;;;;;;;;-1.50;99.90;;;;;;5019320;28;20393;-78
2022/03/07 06:45:57;;;;;;;;;;;-1.40;99.90;;;;;;5029583;28;19948;-77
2022/03/07 06:48:23;;;;;;;;;;;-1.40;99.90;;;;;;5026984;28;19923;-78
2022/03/07 06:50:48;;;;;;;;;;;-1.40;99.90;;;;;;5031415;28;20023;-78
2022/03/07 06:53:14;;;;;;;;;;;-1.40;99.90;;;;;;5027539;28;19913;-78
2022/03/07 06:55:39;;;;;;;;;;;-1.40;99.90;;;;;;5026016;28;20291;-78
2022/03/07 06:58:05;;;;;;;;;;;-1.40;99.90;;;;;;5021483;28;19999;-77
2022/03/07 07:00:31;;;;;;;;;;;-1.30;99.90;;;;;;5028920;28;19920;-77
2022/03/07 07:02:57;;;;;;;;;;;-1.30;99.90;;;;;;5026523;28;19920;-77
2022/03/07 07:05:23;;;;;;;;;;;-1.30;99.90;;;;;;5019657;28;19925;-78
2022/03/07 07:07:49;;;;;;;;;;;-1.20;99.90;;;;;;5028409;28;19962;-77
2022/03/07 07:10:17;;;;;;;;;;;-1.20;99.90;;;;;;5027510;28;19952;-78
2022/03/07 07:12:43;;;;;;;;;;;-1.00;99.90;;;;;;5027452;28;20306;-77
2022/03/07 07:15:09;;;;;;;;;;;-0.90;99.90;;;;;;5021446;28;19921;-77
2022/03/07 07:17:34;;;;;;;;;;;-0.80;99.90;;;;;;5023049;28;19918;-78
2022/03/07 07:20:00;;;;;;;;;;;-0.60;99.90;;;;;;5029857;28;19928;-78
2022/03/07 07:22:26;;;;;;;;;;;-0.50;99.90;;;;;;5026979;28;20015;-76
2022/03/07 07:24:51;;;;;;;;;;;-0.50;99.90;;;;;;5007372;28;19921;-76
2022/03/07 07:27:17;;;;;;;;;;;-0.50;99.90;;;;;;5015026;28;19918;-78
2022/03/07 07:29:43;;;;;;;;;;;-0.60;99.90;;;;;;5023684;28;20397;-78
2022/03/07 07:32:08;;;;;;;;;;;-0.60;99.90;;;;;;5030671;28;20644;-77
2022/03/07 07:34:34;;;;;;;;;;;-0.60;99.90;;;;;;5028149;28;19922;-77
2022/03/07 07:36:59;;;;;;;;;;;-0.60;99.90;;;;;;5023684;28;20004;-79
2022/03/07 07:39:25;;;;;;;;;;;-0.60;99.90;;;;;;5027216;28;20284;-78
2022/03/07 07:41:51;;;;;;;;;;;-0.60;99.90;;;;;;5026403;28;19928;-77
2022/03/07 07:44:16;;;;;;;;;;;-0.60;99.90;;;;;;5025738;28;19968;-77
2022/03/07 07:46:42;;;;;;;;;;;-0.60;99.90;;;;;;5026430;28;19964;-77
2022/03/07 07:49:08;;;;;;;;;;;-0.60;99.90;;;;;;5026751;28;19927;-77
2022/03/07 07:51:34;;;;;;;;;;;-0.60;99.90;;;;;;5030321;28;19997;-78
2022/03/07 07:54:00;;;;;;;;;;;-0.60;99.90;;;;;;5027289;28;20399;-79
2022/03/07 07:56:26;;;;;;;;;;;-0.60;99.90;;;;;;5027020;28;19924;-78
2022/03/07 07:58:52;;;;;;;;;;;-0.60;99.90;;;;;;5028616;28;20421;-78
2022/03/07 08:01:17;;;;;;;;;;;-0.60;99.90;;;;;;5029693;28;19917;-77
2022/03/07 08:03:43;;;;;;;;;;;-0.60;99.90;;;;;;5029966;28;19972;-80
2022/03/07 08:06:09;;;;;;;;;;;-0.60;99.90;;;;;;5023355;28;19940;-77
2022/03/07 08:08:34;;;;;;;;;;;-0.60;99.90;;;;;;5027052;28;19959;-77
2022/03/07 08:11:00;;;;;;;;;;;-0.70;99.90;;;;;;5026716;28;19946;-78
2022/03/07 08:13:25;;;;;;;;;;;-0.70;99.90;;;;;;5025901;28;20326;-78
2022/03/07 08:15:51;;;;;;;;;;;-0.70;99.80;;;;;;5029257;28;20557;-76
2022/03/07 08:18:17;;;;;;;;;;;-0.70;98.90;;;;;;5028480;28;20027;-78
2022/03/07 08:20:43;;;;;;;;;;;-0.80;99.60;;;;;;5025547;28;19920;-77
2022/03/07 08:23:09;;;;;;;;;;;-0.80;99.10;;;;;;5027288;28;20017;-77
2022/03/07 08:25:35;;;;;;;;;;;-0.80;97.20;;;;;;5030178;28;20375;-79
2022/03/07 08:28:01;;;;;;;;;;;-0.90;98.10;;;;;;5030613;28;20346;-78
2022/03/07 08:30:27;;;;;;;;;;;-0.80;99.20;;;;;;5025109;28;19956;-78
2022/03/07 08:32:52;;;;;;;;;;;-0.70;99.50;;;;;;5033219;28;19967;-79
2022/03/07 08:35:19;;;;;;;;;;;-0.50;98.50;;;;;;5017702;28;19922;-77
2022/03/07 08:37:45;;;;;;;;;;;-0.30;96.50;;;;;;5027794;28;20411;-78
2022/03/07 08:40:12;;;;;;;;;;;-0.20;95.50;;;;;;5032159;28;19913;-77
2022/03/07 08:42:37;;;;;;;;;;;-0.20;95.20;;;;;;5032671;28;19923;-77
2022/03/07 08:45:04;;;;;;;;;;;-0.30;93.80;;;;;;5015881;28;20000;-76
2022/03/07 08:47:29;;;;;;;;;;;-0.30;94.60;;;;;;5011172;28;20371;-79
2022/03/07 08:49:56;;;;;;;;;;;-0.30;93.70;;;;;;5020286;28;19959;-78
2022/03/07 08:52:21;;;;;;;;;;;-0.20;93.40;;;;;;5013004;28;19917;-80
2022/03/07 08:54:47;;;;;;;;;;;-0.20;92.20;;;;;;5033029;28;20283;-78
2022/03/07 08:57:13;;;;;;;;;;;-0.20;92.50;;;;;;5022217;28;20375;-77
2022/03/07 08:59:39;;;;;;;;;;;-0.10;94.30;;;;;;5006533;28;19984;-78
2022/03/07 09:02:04;;;;;;;;;;;0.00;93.90;;;;;;5024225;28;19913;-78
2022/03/07 09:04:30;;;;;;;;;;;0.10;93.10;;;;;;5038266;22;19926;-78
2022/03/07 09:06:56;;;;;;;;;;;0.20;91.90;;;;;;5007350;28;19925;-78
2022/03/07 09:09:22;;;;;;;;;;;0.20;92.60;;;;;;5012737;28;19920;-78
2022/03/07 09:11:48;;;;;;;;;;;0.20;92.90;;;;;;5013776;28;19968;-77
2022/03/07 09:14:14;;;;;;;;;;;0.30;91.40;;;;;;4990598;28;19945;-77
2022/03/07 09:16:40;;;;;;;;;;;0.30;92.20;;;;;;5012033;28;19921;-78
2022/03/07 09:19:06;;;;;;;;;;;0.30;91.80;;;;;;5013613;28;19963;-78
2022/03/07 09:21:32;;;;;;;;;;;0.20;91.60;;;;;;4989667;28;19917;-78
2022/03/07 09:23:57;;;;;;;;;;;0.30;91.00;;;;;;5004867;28;19918;-78
2022/03/07 09:26:23;;;;;;;;;;;0.20;91.10;;;;;;5001676;28;20569;-78
2022/03/07 09:28:49;;;;;;;;;;;0.30;91.20;;;;;;5005778;28;19914;-78
2022/03/07 09:31:14;;;;;;;;;;;0.30;92.40;;;;;;5011493;28;19918;-77
2022/03/07 09:33:40;;;;;;;;;;;0.50;91.20;;;;;;5008643;28;19941;-77
2022/03/07 09:36:06;;;;;;;;;;;0.50;90.30;;;;;;4994937;28;20016;-77
2022/03/07 09:38:34;;;;;;;;;;;0.50;90.50;;;;;;5011410;28;19913;-77
2022/03/07 09:41:00;;;;;;;;;;;0.50;91.80;;;;;;5009937;28;20010;-78
2022/03/07 09:43:26;;;;;;;;;;;0.70;91.00;;;;;;4988242;28;20013;-77
2022/03/07 09:45:52;;;;;;;;;;;0.80;91.00;;;;;;4977745;28;19998;-77
2022/03/07 09:48:17;;;;;;;;;;;1.00;91.30;;;;;;5009949;28;20299;-75
2022/03/07 09:50:44;;;;;;;;;;;1.20;89.80;;;;;;4995617;28;19965;-77
2022/03/07 09:53:10;;;;;;;;;;;1.30;88.30;;;;;;5005681;28;20361;-77
2022/03/07 09:55:36;;;;;;;;;;;1.40;86.60;;;;;;5002590;28;20012;-77
2022/03/07 09:58:02;;;;;;;;;;;1.40;88.30;;;;;;5006786;28;19921;-76
2022/03/07 10:00:28;;;;;;;;;;;1.50;87.30;;;;;;5007293;28;19920;-77
2022/03/07 10:02:54;;;;;;;;;;;1.50;85.90;;;;;;5008904;28;19917;-76
2022/03/07 10:05:19;;;;;;;;;;;1.50;84.90;;;;;;5009784;28;19925;-77
2022/03/07 10:07:45;;;;;;;;;;;1.50;87.80;;;;;;5005063;28;20326;-77
2022/03/07 10:10:11;;;;;;;;;;;1.60;87.80;;;;;;5004617;28;19960;-77
2022/03/07 10:12:50;;;;;;;;;;;1.60;85.30;;;;;;5009024;28;20173;-77
2022/03/07 10:15:21;;;;;;;;;;;1.70;87.00;;;;;;4988809;28;19928;-77
2022/03/07 10:17:51;;;;;;;;;;;1.80;87.50;;;;;;4994418;28;19947;-78
2022/03/07 10:20:19;;;;;;;;;;;1.90;86.60;;;;;;5011516;28;19921;-78
2022/03/07 10:22:46;;;;;;;;;;;1.90;86.30;;;;;;5009875;28;19929;-78
2022/03/07 10:25:12;;;;;;;;;;;1.80;85.00;;;;;;5010498;28;19921;-77
2022/03/07 10:27:44;;;;;;;;;;;1.70;84.80;;;;;;5009382;28;19932;-77
2022/03/07 10:30:10;;;;;;;;;;;1.70;85.50;;;;;;4990817;28;19917;-77
2022/03/07 10:32:36;;;;;;;;;;;1.60;86.40;;;;;;4987246;28;19918;-77
2022/03/07 10:35:01;;;;;;;;;;;1.60;88.10;;;;;;5003945;28;19917;-77
2022/03/07 10:37:31;;;;;;;;;;;1.70;84.80;;;;;;4994325;28;20518;-77
2022/03/07 10:39:56;;;;;;;;;;;1.70;85.50;;;;;;5009963;28;20350;-76
2022/03/07 10:42:22;;;;;;;;;;;1.70;87.40;;;;;;4996338;28;20008;-77
2022/03/07 10:44:47;;;;;;;;;;;1.80;86.70;;;;;;4993983;28;19943;-77
2022/03/07 10:47:18;;;;;;;;;;;1.80;84.60;;;;;;4993566;28;19918;-77
2022/03/07 10:49:57;;;;;;;;;;;1.90;88.50;;;;;;5005444;28;19922;-77
2022/03/07 10:52:24;;;;;;;;;;;2.00;87.60;;;;;;5006708;28;19921;-77
2022/03/07 10:54:50;;;;;;;;;;;2.10;85.20;;;;;;5008715;28;19992;-78
2022/03/07 10:57:17;;;;;;;;;;;2.20;85.30;;;;;;5010562;28;20578;-77
2022/03/07 10:59:43;;;;;;;;;;;2.30;85.80;;;;;;5011758;28;19917;-76
2022/03/07 11:02:10;;;;;;;;;;;2.30;84.20;;;;;;5010937;28;20555;-77
2022/03/07 11:04:37;;;;;;;;;;;2.30;86.10;;;;;;4994796;28;19932;-77
2022/03/07 11:07:03;;;;;;;;;;;2.50;85.40;;;;;;5007839;28;20366;-77
2022/03/07 11:09:28;;;;;;;;;;;2.50;85.70;;;;;;5005066;28;19917;-77
2022/03/07 11:11:54;;;;;;;;;;;2.60;84.40;;;;;;5002635;28;19956;-78
2022/03/07 11:14:21;;;;;;;;;;;2.70;82.90;;;;;;4977386;28;19917;-77
2022/03/07 11:16:49;;;;;;;;;;;2.60;82.90;;;;;;5010398;28;19921;-78
2022/03/07 11:19:17;;;;;;;;;;;2.60;84.50;;;;;;5003335;28;20193;-77
2022/03/07 11:21:43;;;;;;;;;;;2.60;81.60;;;;;;5004185;28;19920;-78
2022/03/07 11:24:10;;;;;;;;;;;2.50;82.50;;;;;;5003472;28;20052;-77
2022/03/07 11:26:37;;;;;;;;;;;2.50;82.20;;;;;;4988463;28;19956;-78
2022/03/07 11:29:02;;;;;;;;;;;2.50;82.00;;;;;;4991956;28;19918;-77
2022/03/07 11:31:28;;;;;;;;;;;2.50;83.40;;;;;;4992707;28;19925;-77
2022/03/07 11:33:55;;;;;;;;;;;2.50;82.60;;;;;;5005108;28;19979;-77
2022/03/07 11:36:22;;;;;;;;;;;2.50;81.20;;;;;;4994000;28;20367;-78
2022/03/07 11:38:58;;;;;;;;;;;2.60;81.00;;;;;;5005725;28;19917;-77
2022/03/07 11:41:28;;;;;;;;;;;2.70;83.70;;;;;;4999938;28;19982;-78
2022/03/07 11:43:56;;;;;;;;;;;2.80;82.80;;;;;;5003898;28;19976;-77
2022/03/07 11:46:27;;;;;;;;;;;2.70;83.20;;;;;;4991582;28;20375;-78
2022/03/07 11:48:53;;;;;;;;;;;2.90;81.60;;;;;;5008178;28;19921;-78
2022/03/07 11:51:20;;;;;;;;;;;2.90;81.10;;;;;;5006416;28;20358;-77
2022/03/07 11:53:46;;;;;;;;;;;2.80;81.70;;;;;;5002661;28;19922;-78
2022/03/07 11:56:15;;;;;;;;;;;2.80;78.60;;;;;;5005679;28;19944;-78
2022/03/07 11:58:46;;;;;;;;;;;2.70;80.10;;;;;;5006550;28;20000;-78
2022/03/07 12:01:12;;;;;;;;;;;2.60;80.10;;;;;;5002693;28;20257;-77
2022/03/07 12:03:38;;;;;;;;;;;2.60;80.00;;;;;;4993980;28;19922;-76
2022/03/07 12:06:11;;;;;;;;;;;2.70;81.80;;;;;;5012411;28;20268;-78
2022/03/07 12:08:53;;;;;;;;;;;2.90;82.80;;;;;;5009157;28;20579;-77
2022/03/07 12:11:24;;;;;;;;;;;3.00;80.10;;;;;;5008955;28;19913;-77
2022/03/07 12:13:50;;;;;;;;;;;3.00;81.20;;;;;;4995815;28;20398;-77
2022/03/07 12:16:26;;;;;;;;;;;3.20;79.30;;;;;;5009976;28;19972;-77
2022/03/07 12:18:53;;;;;;;;;;;3.20;78.10;;;;;;4996229;28;19924;-77
2022/03/07 12:21:27;;;;;;;;;;;3.20;77.20;;;;;;5008655;28;19924;-77
2022/03/07 12:23:55;;;;;;;;;;;3.30;78.30;;;;;;5004755;28;19968;-77
2022/03/07 12:26:20;;;;;;;;;;;3.40;76.70;;;;;;5008165;28;19914;-77
2022/03/07 12:28:48;;;;;;;;;;;3.40;76.20;;;;;;5009558;28;19922;-77
2022/03/07 12:31:15;;;;;;;;;;;3.40;78.50;;;;;;5006544;28;20210;-77
2022/03/07 12:33:43;;;;;;;;;;;3.50;77.50;;;;;;5004627;28;19922;-76
2022/03/07 12:36:12;;;;;;;;;;;3.60;78.20;;;;;;5010674;28;19964;-77
2022/03/07 12:38:44;;;;;;;;;;;3.70;81.20;;;;;;5004559;28;19933;-77
2022/03/07 12:41:10;;;;;;;;;;;3.80;75.10;;;;;;5002795;28;20542;-77
2022/03/07 12:43:38;;;;;;;;;;;3.90;74.70;;;;;;5005150;28;20316;-78
2022/03/07 12:46:03;;;;;;;;;;;3.90;74.30;;;;;;4977699;28;19921;-77
2022/03/07 12:48:37;;;;;;;;;;;3.90;75.20;;;;;;4994721;28;19920;-77
2022/03/07 12:51:07;;;;;;;;;;;4.00;75.90;;;;;;5011860;28;19979;-77
2022/03/07 12:53:43;;;;;;;;;;;4.00;77.00;;;;;;5004932;28;19924;-77
2022/03/07 12:56:09;;;;;;;;;;;3.90;73.70;;;;;;5010084;28;20418;-77
2022/03/07 12:58:43;;;;;;;;;;;3.70;77.60;;;;;;5002677;28;20017;-77
2022/03/07 13:01:10;;;;;;;;;;;3.70;75.90;;;;;;5006861;28;19913;-77
2022/03/07 13:03:36;;;;;;;;;;;3.80;76.40;;;;;;5005576;28;20378;-77
2022/03/07 13:06:02;;;;;;;;;;;3.90;76.70;;;;;;5003111;28;20004;-76
2022/03/07 13:08:28;;;;;;;;;;;4.00;77.00;;;;;;5012379;28;19913;-77
2022/03/07 13:10:53;;;;;;;;;;;4.10;76.30;;;;;;5009096;28;20367;-77
2022/03/07 13:13:19;;;;;;;;;;;4.20;74.10;;;;;;5001831;28;19957;-77
2022/03/07 13:15:44;;;;;;;;;;;4.20;73.50;;;;;;5006290;28;20354;-76
2022/03/07 13:18:10;;;;;;;;;;;4.10;75.20;;;;;;4992765;28;19951;-76
2022/03/07 13:20:36;;;;;;;;;;;4.10;74.30;;;;;;4991845;28;19978;-76
2022/03/07 13:23:03;;;;;;;;;;;4.10;75.20;;;;;;4979353;28;19917;-77
2022/03/07 13:25:42;;;;;;;;;;;4.10;74.60;;;;;;5010469;28;19936;-77
2022/03/07 13:28:09;;;;;;;;;;;4.10;76.80;;;;;;5012001;28;19967;-76
2022/03/07 13:30:35;;;;;;;;;;;4.20;79.50;;;;;;5007475;28;19913;-77
2022/03/07 13:33:02;;;;;;;;;;;4.40;82.50;;;;;;5008476;28;20569;-77
2022/03/07 13:35:28;;;;;;;;;;;4.60;76.60;;;;;;5009814;28;20406;-76
2022/03/07 13:37:54;;;;;;;;;;;4.80;80.40;;;;;;4992127;28;19918;-77
2022/03/07 13:40:27;;;;;;;;;;;5.10;80.70;;;;;;5004920;28;19921;-77
2022/03/07 13:42:53;;;;;;;;;;;5.40;78.50;;;;;;5006450;28;19917;-77
2022/03/07 13:45:24;;;;;;;;;;;5.60;74.30;;;;;;5011038;28;20402;-77
2022/03/07 13:48:20;;;;;;;;;;;5.70;72.10;;;;;;5012543;28;20395;-77
2022/03/07 13:50:47;;;;;;;;;;;5.50;69.90;;;;;;4991287;28;19915;-77
2022/03/07 13:53:18;;;;;;;;;;;5.30;72.10;;;;;;5010719;28;19956;-77
2022/03/07 13:55:46;;;;;;;;;;;5.20;75.20;;;;;;5009302;28;19922;-77
2022/03/07 13:58:13;;;;;;;;;;;5.20;75.50;;;;;;5007870;28;19917;-77
2022/03/07 14:00:38;;;;;;;;;;;5.20;76.90;;;;;;5006204;28;20431;-77
2022/03/07 14:03:05;;;;;;;;;;;5.00;77.80;;;;;;5007002;28;20012;-77
2022/03/07 14:05:46;;;;;;;;;;;5.00;75.30;;;;;;5005156;28;19999;-77
2022/03/07 14:08:15;;;;;;;;;;;4.90;75.10;;;;;;5007962;28;20364;-77
2022/03/07 14:10:41;;;;;;;;;;;4.70;75.10;;;;;;4978460;28;20391;-78
2022/03/07 14:13:07;;;;;;;;;;;4.70;77.30;;;;;;5004572;28;19979;-77
2022/03/07 14:15:33;;;;;;;;;;;4.60;76.00;;;;;;5004265;28;19922;-77
2022/03/07 14:18:01;;;;;;;;;;;4.40;75.90;;;;;;5006281;28;20103;-77